sensor_id;sensor_type;location;lat;lon;timestamp;P1;durP1;ratioP1;P2;durP2;ratioP2
25615;SDS011;13482;48.234;13.006;2023-05-19T00:01:27;3.70;;;1.85;;
25615;SDS011;13482;48.234;13.006;2023-05-19T00:03:55;4.65;;;1.80;;
25615;SDS011;13482;48.234;13.006;2023-05-19T00:06:25;3.72;;;1.90;;
25615;SDS011;13482;48.234;13.006;2023-05-19T00:11:28;3.38;;;1.63;;
25615;SDS011;13482;48.234;13.006;2023-05-19T00:13:59;4.20;;;1.88;;
25615;SDS011;13482;48.234;13.006;2023-05-19T00:16:27;3.13;;;1.92;;
25615;SDS011;13482;48.234;13.006;2023-05-19T00:18:56;5.03;;;2.00;;
25615;SDS011;13482;48.234;13.006;2023-05-19T00:21:28;3.83;;;1.77;;
25615;SDS011;13482;48.234;13.006;2023-05-19T00:23:56;3.67;;;1.75;;
25615;SDS011;13482;48.234;13.006;2023-05-19T00:26:25;3.47;;;1.95;;
25615;SDS011;13482;48.234;13.006;2023-05-19T00:28:53;3.30;;;1.70;;
25615;SDS011;13482;48.234;13.006;2023-05-19T00:31:21;3.97;;;1.92;;
25615;SDS011;13482;48.234;13.006;2023-05-19T00:33:48;3.67;;;1.98;;
25615;SDS011;13482;48.234;13.006;2023-05-19T00:36:15;3.45;;;1.90;;
25615;SDS011;13482;48.234;13.006;2023-05-19T00:38:42;3.72;;;1.80;;
25615;SDS011;13482;48.234;13.006;2023-05-19T00:41:10;2.88;;;1.80;;
25615;SDS011;13482;48.234;13.006;2023-05-19T00:43:37;3.17;;;1.75;;
25615;SDS011;13482;48.234;13.006;2023-05-19T00:46:04;3.22;;;2.00;;
25615;SDS011;13482;48.234;13.006;2023-05-19T00:48:32;3.67;;;1.90;;
25615;SDS011;13482;48.234;13.006;2023-05-19T00:51:00;4.40;;;1.90;;
25615;SDS011;13482;48.234;13.006;2023-05-19T00:53:31;3.80;;;1.92;;
25615;SDS011;13482;48.234;13.006;2023-05-19T00:56:00;4.50;;;2.05;;
25615;SDS011;13482;48.234;13.006;2023-05-19T00:58:29;4.78;;;2.25;;
25615;SDS011;13482;48.234;13.006;2023-05-19T01:00:58;3.92;;;1.92;;
25615;SDS011;13482;48.234;13.006;2023-05-19T01:03:30;3.33;;;2.00;;
25615;SDS011;13482;48.234;13.006;2023-05-19T01:06:03;4.55;;;1.88;;
25615;SDS011;13482;48.234;13.006;2023-05-19T01:08:31;3.90;;;1.98;;
25615;SDS011;13482;48.234;13.006;2023-05-19T01:11:00;5.07;;;2.03;;
25615;SDS011;13482;48.234;13.006;2023-05-19T01:13:27;3.03;;;1.80;;
25615;SDS011;13482;48.234;13.006;2023-05-19T01:16:06;2.80;;;1.83;;
25615;SDS011;13482;48.234;13.006;2023-05-19T01:18:41;4.05;;;2.05;;
25615;SDS011;13482;48.234;13.006;2023-05-19T01:33:14;3.70;;;1.77;;
25615;SDS011;13482;48.234;13.006;2023-05-19T01:35:42;3.38;;;2.00;;
25615;SDS011;13482;48.234;13.006;2023-05-19T01:38:11;3.88;;;2.13;;
25615;SDS011;13482;48.234;13.006;2023-05-19T01:40:41;5.47;;;2.63;;
25615;SDS011;13482;48.234;13.006;2023-05-19T01:43:12;3.95;;;2.10;;
25615;SDS011;13482;48.234;13.006;2023-05-19T01:45:43;4.45;;;2.30;;
25615;SDS011;13482;48.234;13.006;2023-05-19T01:48:11;4.95;;;2.40;;
25615;SDS011;13482;48.234;13.006;2023-05-19T01:50:40;3.17;;;2.17;;
25615;SDS011;13482;48.234;13.006;2023-05-19T01:53:08;3.50;;;2.25;;
25615;SDS011;13482;48.234;13.006;2023-05-19T01:55:41;3.55;;;2.20;;
25615;SDS011;13482;48.234;13.006;2023-05-19T01:58:30;4.35;;;2.42;;
25615;SDS011;13482;48.234;13.006;2023-05-19T02:01:30;4.85;;;2.78;;
25615;SDS011;13482;48.234;13.006;2023-05-19T02:07:43;4.75;;;2.47;;
25615;SDS011;13482;48.234;13.006;2023-05-19T02:12:49;3.10;;;1.92;;
25615;SDS011;13482;48.234;13.006;2023-05-19T02:15:41;4.20;;;2.45;;
25615;SDS011;13482;48.234;13.006;2023-05-19T02:18:12;4.10;;;2.30;;
25615;SDS011;13482;48.234;13.006;2023-05-19T02:23:30;3.72;;;2.15;;
25615;SDS011;13482;48.234;13.006;2023-05-19T02:25:57;4.55;;;2.65;;
25615;SDS011;13482;48.234;13.006;2023-05-19T02:28:24;4.60;;;2.22;;
25615;SDS011;13482;48.234;13.006;2023-05-19T02:30:53;3.47;;;2.22;;
25615;SDS011;13482;48.234;13.006;2023-05-19T02:33:21;4.57;;;2.47;;
25615;SDS011;13482;48.234;13.006;2023-05-19T02:35:51;6.40;;;2.70;;
25615;SDS011;13482;48.234;13.006;2023-05-19T02:38:19;4.10;;;2.42;;
25615;SDS011;13482;48.234;13.006;2023-05-19T02:40:46;4.00;;;2.33;;
25615;SDS011;13482;48.234;13.006;2023-05-19T02:43:13;5.45;;;2.38;;
25615;SDS011;13482;48.234;13.006;2023-05-19T02:45:41;3.40;;;2.20;;
25615;SDS011;13482;48.234;13.006;2023-05-19T02:48:08;4.95;;;2.40;;
25615;SDS011;13482;48.234;13.006;2023-05-19T02:50:36;4.60;;;2.47;;
25615;SDS011;13482;48.234;13.006;2023-05-19T02:53:03;4.90;;;2.60;;
25615;SDS011;13482;48.234;13.006;2023-05-19T02:55:30;4.20;;;2.53;;
25615;SDS011;13482;48.234;13.006;2023-05-19T02:57:57;3.83;;;2.40;;
25615;SDS011;13482;48.234;13.006;2023-05-19T03:00:25;5.05;;;2.63;;
25615;SDS011;13482;48.234;13.006;2023-05-19T03:02:52;4.38;;;2.60;;
25615;SDS011;13482;48.234;13.006;2023-05-19T03:05:20;3.78;;;2.35;;
25615;SDS011;13482;48.234;13.006;2023-05-19T03:07:47;3.10;;;2.13;;
25615;SDS011;13482;48.234;13.006;2023-05-19T03:10:14;4.10;;;2.25;;
25615;SDS011;13482;48.234;13.006;2023-05-19T03:12:41;5.13;;;2.28;;
25615;SDS011;13482;48.234;13.006;2023-05-19T03:15:09;3.92;;;2.38;;
25615;SDS011;13482;48.234;13.006;2023-05-19T03:17:38;3.85;;;2.47;;
25615;SDS011;13482;48.234;13.006;2023-05-19T03:20:06;4.03;;;2.38;;
25615;SDS011;13482;48.234;13.006;2023-05-19T03:22:34;3.28;;;2.40;;
25615;SDS011;13482;48.234;13.006;2023-05-19T03:25:01;4.53;;;2.28;;
25615;SDS011;13482;48.234;13.006;2023-05-19T03:27:30;4.78;;;2.35;;
25615;SDS011;13482;48.234;13.006;2023-05-19T03:29:57;4.43;;;2.33;;
25615;SDS011;13482;48.234;13.006;2023-05-19T03:32:24;4.50;;;2.40;;
25615;SDS011;13482;48.234;13.006;2023-05-19T03:34:51;5.28;;;2.50;;
25615;SDS011;13482;48.234;13.006;2023-05-19T03:37:19;3.63;;;2.25;;
25615;SDS011;13482;48.234;13.006;2023-05-19T03:39:46;5.65;;;1.95;;
25615;SDS011;13482;48.234;13.006;2023-05-19T03:42:13;4.55;;;2.25;;
25615;SDS011;13482;48.234;13.006;2023-05-19T03:44:41;4.95;;;2.40;;
25615;SDS011;13482;48.234;13.006;2023-05-19T03:47:09;4.13;;;2.28;;
25615;SDS011;13482;48.234;13.006;2023-05-19T03:49:37;4.50;;;2.40;;
25615;SDS011;13482;48.234;13.006;2023-05-19T03:52:04;4.63;;;2.65;;
25615;SDS011;13482;48.234;13.006;2023-05-19T03:54:31;4.78;;;2.45;;
25615;SDS011;13482;48.234;13.006;2023-05-19T03:56:59;3.75;;;2.20;;
25615;SDS011;13482;48.234;13.006;2023-05-19T03:59:27;5.45;;;2.30;;
25615;SDS011;13482;48.234;13.006;2023-05-19T04:01:54;3.97;;;2.28;;
25615;SDS011;13482;48.234;13.006;2023-05-19T04:04:23;3.33;;;2.10;;
25615;SDS011;13482;48.234;13.006;2023-05-19T04:06:50;4.00;;;2.35;;
25615;SDS011;13482;48.234;13.006;2023-05-19T04:09:17;5.43;;;2.65;;
25615;SDS011;13482;48.234;13.006;2023-05-19T04:11:45;2.67;;;1.90;;
25615;SDS011;13482;48.234;13.006;2023-05-19T04:14:12;4.60;;;2.40;;
25615;SDS011;13482;48.234;13.006;2023-05-19T04:16:39;3.88;;;2.17;;
25615;SDS011;13482;48.234;13.006;2023-05-19T04:19:07;4.60;;;2.25;;
25615;SDS011;13482;48.234;13.006;2023-05-19T04:21:34;3.38;;;2.20;;
25615;SDS011;13482;48.234;13.006;2023-05-19T04:24:01;3.60;;;2.30;;
25615;SDS011;13482;48.234;13.006;2023-05-19T04:26:31;4.15;;;2.47;;
25615;SDS011;13482;48.234;13.006;2023-05-19T04:28:59;3.80;;;2.40;;
25615;SDS011;13482;48.234;13.006;2023-05-19T04:31:30;3.38;;;2.17;;
25615;SDS011;13482;48.234;13.006;2023-05-19T04:33:59;4.20;;;2.40;;
25615;SDS011;13482;48.234;13.006;2023-05-19T04:36:27;3.38;;;2.35;;
25615;SDS011;13482;48.234;13.006;2023-05-19T04:38:54;5.47;;;2.65;;
25615;SDS011;13482;48.234;13.006;2023-05-19T04:41:27;5.18;;;2.60;;
25615;SDS011;13482;48.234;13.006;2023-05-19T04:43:54;3.40;;;2.25;;
25615;SDS011;13482;48.234;13.006;2023-05-19T04:46:22;3.53;;;2.13;;
25615;SDS011;13482;48.234;13.006;2023-05-19T04:48:51;4.38;;;2.28;;
25615;SDS011;13482;48.234;13.006;2023-05-19T04:51:20;4.28;;;2.35;;
25615;SDS011;13482;48.234;13.006;2023-05-19T04:53:48;4.28;;;2.45;;
25615;SDS011;13482;48.234;13.006;2023-05-19T04:56:16;4.32;;;2.30;;
25615;SDS011;13482;48.234;13.006;2023-05-19T04:58:44;3.75;;;2.30;;
25615;SDS011;13482;48.234;13.006;2023-05-19T05:01:12;3.80;;;2.38;;
25615;SDS011;13482;48.234;13.006;2023-05-19T05:03:41;4.63;;;2.30;;
25615;SDS011;13482;48.234;13.006;2023-05-19T05:06:10;3.53;;;2.22;;
25615;SDS011;13482;48.234;13.006;2023-05-19T05:08:37;5.70;;;2.58;;
25615;SDS011;13482;48.234;13.006;2023-05-19T05:11:06;3.63;;;2.28;;
25615;SDS011;13482;48.234;13.006;2023-05-19T05:13:34;4.05;;;2.10;;
25615;SDS011;13482;48.234;13.006;2023-05-19T05:16:02;3.97;;;2.35;;
25615;SDS011;13482;48.234;13.006;2023-05-19T05:18:32;5.13;;;2.47;;
25615;SDS011;13482;48.234;13.006;2023-05-19T05:21:00;3.33;;;2.17;;
25615;SDS011;13482;48.234;13.006;2023-05-19T05:23:31;3.22;;;2.17;;
25615;SDS011;13482;48.234;13.006;2023-05-19T05:25:59;5.60;;;2.17;;
25615;SDS011;13482;48.234;13.006;2023-05-19T05:28:35;6.47;;;2.60;;
25615;SDS011;13482;48.234;13.006;2023-05-19T05:31:03;4.93;;;2.35;;
25615;SDS011;13482;48.234;13.006;2023-05-19T05:33:32;3.88;;;2.33;;
25615;SDS011;13482;48.234;13.006;2023-05-19T05:35:59;3.65;;;2.38;;
25615;SDS011;13482;48.234;13.006;2023-05-19T05:38:29;5.82;;;2.53;;
25615;SDS011;13482;48.234;13.006;2023-05-19T05:41:05;4.05;;;2.53;;
25615;SDS011;13482;48.234;13.006;2023-05-19T05:43:32;4.20;;;2.42;;
25615;SDS011;13482;48.234;13.006;2023-05-19T05:46:00;6.03;;;2.72;;
25615;SDS011;13482;48.234;13.006;2023-05-19T05:48:30;5.72;;;2.42;;
25615;SDS011;13482;48.234;13.006;2023-05-19T05:50:58;5.13;;;2.20;;
25615;SDS011;13482;48.234;13.006;2023-05-19T05:53:25;5.95;;;2.58;;
25615;SDS011;13482;48.234;13.006;2023-05-19T05:58:26;4.68;;;2.13;;
25615;SDS011;13482;48.234;13.006;2023-05-19T06:00:54;4.50;;;2.30;;
25615;SDS011;13482;48.234;13.006;2023-05-19T06:03:23;4.15;;;2.20;;
25615;SDS011;13482;48.234;13.006;2023-05-19T06:05:50;3.28;;;2.35;;
25615;SDS011;13482;48.234;13.006;2023-05-19T06:08:18;4.13;;;2.08;;
25615;SDS011;13482;48.234;13.006;2023-05-19T06:10:48;4.22;;;2.40;;
25615;SDS011;13482;48.234;13.006;2023-05-19T06:13:15;3.80;;;2.42;;
25615;SDS011;13482;48.234;13.006;2023-05-19T06:15:47;2.63;;;1.98;;
25615;SDS011;13482;48.234;13.006;2023-05-19T06:18:15;4.43;;;2.35;;
25615;SDS011;13482;48.234;13.006;2023-05-19T06:20:43;3.58;;;2.33;;
25615;SDS011;13482;48.234;13.006;2023-05-19T06:23:10;3.15;;;2.30;;
25615;SDS011;13482;48.234;13.006;2023-05-19T06:25:37;5.63;;;2.60;;
25615;SDS011;13482;48.234;13.006;2023-05-19T06:28:04;4.57;;;2.47;;
25615;SDS011;13482;48.234;13.006;2023-05-19T06:30:33;4.95;;;2.42;;
25615;SDS011;13482;48.234;13.006;2023-05-19T06:33:03;3.85;;;2.22;;
25615;SDS011;13482;48.234;13.006;2023-05-19T06:35:30;3.38;;;2.28;;
25615;SDS011;13482;48.234;13.006;2023-05-19T06:37:59;3.85;;;2.28;;
25615;SDS011;13482;48.234;13.006;2023-05-19T06:40:27;5.22;;;2.47;;
25615;SDS011;13482;48.234;13.006;2023-05-19T06:42:55;4.88;;;2.30;;
25615;SDS011;13482;48.234;13.006;2023-05-19T06:45:22;3.63;;;2.50;;
25615;SDS011;13482;48.234;13.006;2023-05-19T06:47:50;3.97;;;2.40;;
25615;SDS011;13482;48.234;13.006;2023-05-19T06:50:17;4.40;;;2.63;;
25615;SDS011;13482;48.234;13.006;2023-05-19T06:52:44;4.18;;;2.60;;
25615;SDS011;13482;48.234;13.006;2023-05-19T06:55:12;4.03;;;2.47;;
25615;SDS011;13482;48.234;13.006;2023-05-19T06:57:39;3.97;;;2.80;;
25615;SDS011;13482;48.234;13.006;2023-05-19T07:00:07;4.28;;;2.40;;
25615;SDS011;13482;48.234;13.006;2023-05-19T07:02:43;3.88;;;2.53;;
25615;SDS011;13482;48.234;13.006;2023-05-19T07:05:10;3.67;;;2.63;;
25615;SDS011;13482;48.234;13.006;2023-05-19T07:07:38;4.30;;;2.58;;
25615;SDS011;13482;48.234;13.006;2023-05-19T07:10:05;3.40;;;2.55;;
25615;SDS011;13482;48.234;13.006;2023-05-19T07:12:33;3.85;;;2.60;;
25615;SDS011;13482;48.234;13.006;2023-05-19T07:15:00;5.63;;;2.58;;
25615;SDS011;13482;48.234;13.006;2023-05-19T07:17:27;4.00;;;2.88;;
25615;SDS011;13482;48.234;13.006;2023-05-19T07:19:55;5.82;;;2.72;;
25615;SDS011;13482;48.234;13.006;2023-05-19T07:22:22;4.18;;;2.35;;
25615;SDS011;13482;48.234;13.006;2023-05-19T07:24:49;4.15;;;2.60;;
25615;SDS011;13482;48.234;13.006;2023-05-19T07:27:16;4.20;;;2.45;;
25615;SDS011;13482;48.234;13.006;2023-05-19T07:29:44;4.63;;;3.03;;
25615;SDS011;13482;48.234;13.006;2023-05-19T07:32:11;4.95;;;2.85;;
25615;SDS011;13482;48.234;13.006;2023-05-19T07:34:39;4.03;;;2.63;;
25615;SDS011;13482;48.234;13.006;2023-05-19T07:37:06;3.83;;;2.78;;
25615;SDS011;13482;48.234;13.006;2023-05-19T07:39:37;5.45;;;2.72;;
25615;SDS011;13482;48.234;13.006;2023-05-19T07:42:11;5.32;;;3.00;;
25615;SDS011;13482;48.234;13.006;2023-05-19T07:44:41;4.68;;;2.90;;
25615;SDS011;13482;48.234;13.006;2023-05-19T07:47:17;4.10;;;2.80;;
25615;SDS011;13482;48.234;13.006;2023-05-19T07:49:45;4.47;;;3.10;;
25615;SDS011;13482;48.234;13.006;2023-05-19T07:52:17;4.43;;;2.90;;
25615;SDS011;13482;48.234;13.006;2023-05-19T07:54:48;3.70;;;2.53;;
25615;SDS011;13482;48.234;13.006;2023-05-19T07:57:15;3.22;;;2.38;;
25615;SDS011;13482;48.234;13.006;2023-05-19T07:59:44;4.25;;;2.70;;
25615;SDS011;13482;48.234;13.006;2023-05-19T08:02:11;4.43;;;2.55;;
25615;SDS011;13482;48.234;13.006;2023-05-19T08:04:40;4.18;;;2.80;;
25615;SDS011;13482;48.234;13.006;2023-05-19T08:07:08;3.75;;;2.70;;
25615;SDS011;13482;48.234;13.006;2023-05-19T08:09:35;3.45;;;2.50;;
25615;SDS011;13482;48.234;13.006;2023-05-19T08:12:02;3.75;;;2.60;;
25615;SDS011;13482;48.234;13.006;2023-05-19T08:14:30;3.63;;;2.60;;
25615;SDS011;13482;48.234;13.006;2023-05-19T08:16:58;4.22;;;2.72;;
25615;SDS011;13482;48.234;13.006;2023-05-19T08:19:26;4.40;;;2.90;;
25615;SDS011;13482;48.234;13.006;2023-05-19T08:21:53;4.35;;;3.28;;
25615;SDS011;13482;48.234;13.006;2023-05-19T08:24:22;3.30;;;2.35;;
25615;SDS011;13482;48.234;13.006;2023-05-19T08:26:52;4.35;;;2.83;;
25615;SDS011;13482;48.234;13.006;2023-05-19T08:29:19;4.43;;;2.72;;
25615;SDS011;13482;48.234;13.006;2023-05-19T08:31:47;4.90;;;2.90;;
25615;SDS011;13482;48.234;13.006;2023-05-19T08:34:14;3.40;;;2.40;;
25615;SDS011;13482;48.234;13.006;2023-05-19T08:36:41;4.35;;;2.97;;
25615;SDS011;13482;48.234;13.006;2023-05-19T08:39:10;4.28;;;2.70;;
25615;SDS011;13482;48.234;13.006;2023-05-19T08:41:39;4.63;;;3.00;;
25615;SDS011;13482;48.234;13.006;2023-05-19T08:44:06;4.22;;;3.13;;
25615;SDS011;13482;48.234;13.006;2023-05-19T08:46:33;4.20;;;3.13;;
25615;SDS011;13482;48.234;13.006;2023-05-19T08:49:03;5.43;;;3.15;;
25615;SDS011;13482;48.234;13.006;2023-05-19T08:54:52;4.05;;;2.75;;
25615;SDS011;13482;48.234;13.006;2023-05-19T08:57:33;4.25;;;2.83;;
25615;SDS011;13482;48.234;13.006;2023-05-19T09:00:02;3.33;;;2.67;;
25615;SDS011;13482;48.234;13.006;2023-05-19T09:02:35;4.30;;;2.95;;
25615;SDS011;13482;48.234;13.006;2023-05-19T09:05:24;4.40;;;2.97;;
25615;SDS011;13482;48.234;13.006;2023-05-19T09:07:51;3.83;;;2.75;;
25615;SDS011;13482;48.234;13.006;2023-05-19T09:10:19;4.10;;;2.90;;
25615;SDS011;13482;48.234;13.006;2023-05-19T09:12:46;4.43;;;2.80;;
25615;SDS011;13482;48.234;13.006;2023-05-19T09:15:18;4.38;;;3.17;;
25615;SDS011;13482;48.234;13.006;2023-05-19T09:17:45;4.50;;;3.13;;
25615;SDS011;13482;48.234;13.006;2023-05-19T09:20:16;4.10;;;2.97;;
25615;SDS011;13482;48.234;13.006;2023-05-19T09:22:43;5.05;;;3.25;;
25615;SDS011;13482;48.234;13.006;2023-05-19T09:25:19;3.85;;;3.08;;
25615;SDS011;13482;48.234;13.006;2023-05-19T09:27:49;4.22;;;3.45;;
25615;SDS011;13482;48.234;13.006;2023-05-19T09:30:19;4.05;;;3.25;;
25615;SDS011;13482;48.234;13.006;2023-05-19T09:32:47;4.43;;;3.55;;
25615;SDS011;13482;48.234;13.006;2023-05-19T09:35:14;4.32;;;3.20;;
25615;SDS011;13482;48.234;13.006;2023-05-19T09:37:46;4.82;;;3.17;;
25615;SDS011;13482;48.234;13.006;2023-05-19T09:40:13;4.68;;;3.40;;
25615;SDS011;13482;48.234;13.006;2023-05-19T09:42:41;3.83;;;2.88;;
25615;SDS011;13482;48.234;13.006;2023-05-19T09:45:14;5.13;;;3.75;;
25615;SDS011;13482;48.234;13.006;2023-05-19T09:47:41;6.25;;;3.63;;
25615;SDS011;13482;48.234;13.006;2023-05-19T09:50:09;4.63;;;3.63;;
25615;SDS011;13482;48.234;13.006;2023-05-19T09:52:38;5.05;;;3.33;;
25615;SDS011;13482;48.234;13.006;2023-05-19T09:55:10;5.05;;;3.55;;
25615;SDS011;13482;48.234;13.006;2023-05-19T09:57:39;4.97;;;3.10;;
25615;SDS011;13482;48.234;13.006;2023-05-19T10:00:07;4.78;;;3.17;;
25615;SDS011;13482;48.234;13.006;2023-05-19T10:02:43;3.88;;;3.00;;
25615;SDS011;13482;48.234;13.006;2023-05-19T10:05:13;4.35;;;3.15;;
25615;SDS011;13482;48.234;13.006;2023-05-19T10:07:45;7.05;;;3.90;;
25615;SDS011;13482;48.234;13.006;2023-05-19T10:10:17;5.28;;;3.33;;
25615;SDS011;13482;48.234;13.006;2023-05-19T10:12:48;3.60;;;2.83;;
25615;SDS011;13482;48.234;13.006;2023-05-19T10:15:16;4.00;;;2.70;;
25615;SDS011;13482;48.234;13.006;2023-05-19T10:17:48;3.78;;;2.80;;
25615;SDS011;13482;48.234;13.006;2023-05-19T10:20:16;3.53;;;3.00;;
25615;SDS011;13482;48.234;13.006;2023-05-19T10:22:44;4.22;;;3.25;;
25615;SDS011;13482;48.234;13.006;2023-05-19T10:25:12;3.95;;;2.80;;
25615;SDS011;13482;48.234;13.006;2023-05-19T10:28:01;4.45;;;2.83;;
25615;SDS011;13482;48.234;13.006;2023-05-19T10:30:35;3.40;;;2.80;;
25615;SDS011;13482;48.234;13.006;2023-05-19T10:33:07;3.45;;;2.58;;
25615;SDS011;13482;48.234;13.006;2023-05-19T10:44:25;3.25;;;2.67;;
25615;SDS011;13482;48.234;13.006;2023-05-19T10:47:08;3.38;;;2.45;;
25615;SDS011;13482;48.234;13.006;2023-05-19T10:49:38;3.75;;;2.63;;
25615;SDS011;13482;48.234;13.006;2023-05-19T10:52:26;3.72;;;2.53;;
25615;SDS011;13482;48.234;13.006;2023-05-19T10:54:55;3.38;;;2.60;;
25615;SDS011;13482;48.234;13.006;2023-05-19T10:57:24;3.03;;;2.40;;
25615;SDS011;13482;48.234;13.006;2023-05-19T10:59:54;4.10;;;3.13;;
25615;SDS011;13482;48.234;13.006;2023-05-19T11:05:07;3.05;;;2.50;;
25615;SDS011;13482;48.234;13.006;2023-05-19T11:07:40;3.25;;;2.50;;
25615;SDS011;13482;48.234;13.006;2023-05-19T11:10:29;3.03;;;2.35;;
25615;SDS011;13482;48.234;13.006;2023-05-19T11:12:57;3.33;;;2.30;;
25615;SDS011;13482;48.234;13.006;2023-05-19T11:15:25;2.90;;;2.40;;
25615;SDS011;13482;48.234;13.006;2023-05-19T11:17:54;3.08;;;2.60;;
25615;SDS011;13482;48.234;13.006;2023-05-19T11:20:23;5.25;;;3.15;;
25615;SDS011;13482;48.234;13.006;2023-05-19T11:23:05;4.25;;;2.60;;
25615;SDS011;13482;48.234;13.006;2023-05-19T11:28:20;3.38;;;2.47;;
25615;SDS011;13482;48.234;13.006;2023-05-19T11:30:53;3.58;;;2.45;;
25615;SDS011;13482;48.234;13.006;2023-05-19T11:33:23;3.63;;;2.45;;
25615;SDS011;13482;48.234;13.006;2023-05-19T11:36:08;3.95;;;2.97;;
25615;SDS011;13482;48.234;13.006;2023-05-19T11:38:36;4.43;;;2.78;;
25615;SDS011;13482;48.234;13.006;2023-05-19T11:41:06;3.00;;;2.58;;
25615;SDS011;13482;48.234;13.006;2023-05-19T11:43:34;2.80;;;2.22;;
25615;SDS011;13482;48.234;13.006;2023-05-19T11:46:05;3.88;;;2.50;;
25615;SDS011;13482;48.234;13.006;2023-05-19T11:48:35;3.70;;;2.15;;
25615;SDS011;13482;48.234;13.006;2023-05-19T11:51:02;3.22;;;2.28;;
25615;SDS011;13482;48.234;13.006;2023-05-19T11:53:31;4.35;;;2.38;;
25615;SDS011;13482;48.234;13.006;2023-05-19T11:56:04;3.33;;;2.42;;
25615;SDS011;13482;48.234;13.006;2023-05-19T11:58:32;2.90;;;2.25;;
25615;SDS011;13482;48.234;13.006;2023-05-19T12:01:02;3.22;;;2.13;;
25615;SDS011;13482;48.234;13.006;2023-05-19T12:03:30;2.85;;;2.22;;
25615;SDS011;13482;48.234;13.006;2023-05-19T12:05:58;2.65;;;2.20;;
25615;SDS011;13482;48.234;13.006;2023-05-19T12:08:26;2.72;;;2.35;;
25615;SDS011;13482;48.234;13.006;2023-05-19T12:10:54;2.85;;;2.15;;
25615;SDS011;13482;48.234;13.006;2023-05-19T12:13:22;3.50;;;2.17;;
25615;SDS011;13482;48.234;13.006;2023-05-19T12:15:50;3.33;;;2.42;;
25615;SDS011;13482;48.234;13.006;2023-05-19T12:18:20;2.85;;;2.20;;
25615;SDS011;13482;48.234;13.006;2023-05-19T12:20:47;5.10;;;2.05;;
25615;SDS011;13482;48.234;13.006;2023-05-19T12:23:15;2.53;;;1.83;;
25615;SDS011;13482;48.234;13.006;2023-05-19T12:25:43;2.60;;;2.10;;
25615;SDS011;13482;48.234;13.006;2023-05-19T12:28:10;3.38;;;2.28;;
25615;SDS011;13482;48.234;13.006;2023-05-19T12:30:38;2.63;;;2.00;;
25615;SDS011;13482;48.234;13.006;2023-05-19T12:33:05;2.78;;;2.00;;
25615;SDS011;13482;48.234;13.006;2023-05-19T12:35:36;2.97;;;2.17;;
25615;SDS011;13482;48.234;13.006;2023-05-19T12:38:04;2.28;;;2.03;;
25615;SDS011;13482;48.234;13.006;2023-05-19T12:40:32;2.20;;;1.92;;
25615;SDS011;13482;48.234;13.006;2023-05-19T12:43:02;3.63;;;2.17;;
25615;SDS011;13482;48.234;13.006;2023-05-19T12:45:33;2.72;;;1.95;;
25615;SDS011;13482;48.234;13.006;2023-05-19T12:48:11;3.78;;;2.13;;
25615;SDS011;13482;48.234;13.006;2023-05-19T12:50:41;2.50;;;1.80;;
25615;SDS011;13482;48.234;13.006;2023-05-19T12:53:13;3.50;;;1.88;;
25615;SDS011;13482;48.234;13.006;2023-05-19T12:55:42;2.72;;;1.95;;
25615;SDS011;13482;48.234;13.006;2023-05-19T12:58:11;2.85;;;1.80;;
25615;SDS011;13482;48.234;13.006;2023-05-19T13:00:39;2.50;;;1.90;;
25615;SDS011;13482;48.234;13.006;2023-05-19T13:03:15;2.72;;;1.75;;
25615;SDS011;13482;48.234;13.006;2023-05-19T13:05:46;2.50;;;1.80;;
25615;SDS011;13482;48.234;13.006;2023-05-19T13:08:19;3.10;;;1.77;;
25615;SDS011;13482;48.234;13.006;2023-05-19T13:10:49;2.70;;;1.95;;
25615;SDS011;13482;48.234;13.006;2023-05-19T13:13:17;2.70;;;2.00;;
25615;SDS011;13482;48.234;13.006;2023-05-19T13:15:45;2.60;;;1.67;;
25615;SDS011;13482;48.234;13.006;2023-05-19T13:18:16;2.40;;;1.80;;
25615;SDS011;13482;48.234;13.006;2023-05-19T13:20:44;2.40;;;1.65;;
25615;SDS011;13482;48.234;13.006;2023-05-19T13:23:14;2.65;;;1.95;;
25615;SDS011;13482;48.234;13.006;2023-05-19T13:25:42;2.45;;;1.65;;
25615;SDS011;13482;48.234;13.006;2023-05-19T13:28:09;2.80;;;1.90;;
25615;SDS011;13482;48.234;13.006;2023-05-19T13:30:38;3.35;;;1.90;;
25615;SDS011;13482;48.234;13.006;2023-05-19T13:33:07;3.17;;;2.15;;
25615;SDS011;13482;48.234;13.006;2023-05-19T13:35:34;2.40;;;1.83;;
25615;SDS011;13482;48.234;13.006;2023-05-19T13:38:04;3.75;;;2.30;;
25615;SDS011;13482;48.234;13.006;2023-05-19T13:43:03;2.20;;;1.80;;
25615;SDS011;13482;48.234;13.006;2023-05-19T13:45:31;2.75;;;2.08;;
25615;SDS011;13482;48.234;13.006;2023-05-19T13:47:59;2.30;;;1.65;;
25615;SDS011;13482;48.234;13.006;2023-05-19T13:50:27;2.70;;;1.83;;
25615;SDS011;13482;48.234;13.006;2023-05-19T13:52:54;3.50;;;2.50;;
25615;SDS011;13482;48.234;13.006;2023-05-19T13:55:22;3.38;;;2.10;;
25615;SDS011;13482;48.234;13.006;2023-05-19T13:57:49;8.45;;;3.40;;
25615;SDS011;13482;48.234;13.006;2023-05-19T14:00:17;3.83;;;2.10;;
25615;SDS011;13482;48.234;13.006;2023-05-19T14:02:44;4.50;;;1.95;;
25615;SDS011;13482;48.234;13.006;2023-05-19T14:05:12;2.45;;;1.65;;
25615;SDS011;13482;48.234;13.006;2023-05-19T14:07:39;2.50;;;1.77;;
25615;SDS011;13482;48.234;13.006;2023-05-19T14:10:06;4.10;;;2.20;;
25615;SDS011;13482;48.234;13.006;2023-05-19T14:12:34;4.00;;;2.53;;
25615;SDS011;13482;48.234;13.006;2023-05-19T14:15:22;3.22;;;2.53;;
25615;SDS011;13482;48.234;13.006;2023-05-19T14:17:50;3.50;;;2.33;;
25615;SDS011;13482;48.234;13.006;2023-05-19T14:20:18;4.13;;;1.98;;
25615;SDS011;13482;48.234;13.006;2023-05-19T14:22:46;3.20;;;1.85;;
25615;SDS011;13482;48.234;13.006;2023-05-19T14:25:13;2.50;;;1.88;;
25615;SDS011;13482;48.234;13.006;2023-05-19T14:27:40;4.20;;;2.45;;
25615;SDS011;13482;48.234;13.006;2023-05-19T14:30:08;2.78;;;2.22;;
25615;SDS011;13482;48.234;13.006;2023-05-19T14:32:35;2.80;;;2.10;;
25615;SDS011;13482;48.234;13.006;2023-05-19T14:35:03;3.03;;;2.10;;
25615;SDS011;13482;48.234;13.006;2023-05-19T14:37:31;2.65;;;1.80;;
25615;SDS011;13482;48.234;13.006;2023-05-19T14:39:59;3.03;;;1.80;;
25615;SDS011;13482;48.234;13.006;2023-05-19T14:42:26;2.20;;;1.77;;
25615;SDS011;13482;48.234;13.006;2023-05-19T14:44:53;2.03;;;1.50;;
25615;SDS011;13482;48.234;13.006;2023-05-19T14:47:21;2.35;;;1.42;;
25615;SDS011;13482;48.234;13.006;2023-05-19T14:49:49;1.95;;;1.40;;
25615;SDS011;13482;48.234;13.006;2023-05-19T14:52:16;1.95;;;1.40;;
25615;SDS011;13482;48.234;13.006;2023-05-19T14:54:44;3.13;;;1.60;;
25615;SDS011;13482;48.234;13.006;2023-05-19T14:57:11;2.00;;;1.60;;
25615;SDS011;13482;48.234;13.006;2023-05-19T14:59:38;1.80;;;1.20;;
25615;SDS011;13482;48.234;13.006;2023-05-19T15:02:06;3.67;;;1.13;;
25615;SDS011;13482;48.234;13.006;2023-05-19T15:04:33;2.20;;;1.40;;
25615;SDS011;13482;48.234;13.006;2023-05-19T15:07:00;1.60;;;1.13;;
25615;SDS011;13482;48.234;13.006;2023-05-19T15:09:30;1.55;;;1.08;;
25615;SDS011;13482;48.234;13.006;2023-05-19T15:11:57;2.03;;;1.20;;
25615;SDS011;13482;48.234;13.006;2023-05-19T15:14:27;1.88;;;1.10;;
25615;SDS011;13482;48.234;13.006;2023-05-19T15:16:56;2.05;;;1.13;;
25615;SDS011;13482;48.234;13.006;2023-05-19T15:19:24;4.40;;;1.20;;
25615;SDS011;13482;48.234;13.006;2023-05-19T15:21:52;2.10;;;1.50;;
25615;SDS011;13482;48.234;13.006;2023-05-19T15:24:19;2.30;;;1.10;;
25615;SDS011;13482;48.234;13.006;2023-05-19T15:26:46;2.30;;;1.10;;
25615;SDS011;13482;48.234;13.006;2023-05-19T15:29:14;1.38;;;0.98;;
25615;SDS011;13482;48.234;13.006;2023-05-19T15:31:41;2.42;;;1.52;;